Time;durP1;ratioP1;P1;durP2;ratioP2;P2;SDS_P1;SDS_P2;PMS_P1;PMS_P2;Temp;Humidity;BMP_temperature;BMP_pressure;BME280_temperature;BME280_humidity;BME280_pressure;Samples;Min_cycle;Max_cycle;Signal;HPM_P1;HPM_P2
2023/12/13 00:01:26;;;;;;;0.57;0.57;;;;;;;;;;5113413;28;20461;-71
2023/12/13 00:03:53;;;;;;;1.57;1.47;;;;;;;;;;5112799;28;20488;-71
2023/12/13 00:06:19;;;;;;;1.97;1.83;;;;;;;;;;5113209;28;20442;-71
2023/12/13 00:08:45;;;;;;;2.60;1.23;;;;;;;;;;5113447;28;20766;-72
2023/12/13 00:11:11;;;;;;;5.53;2.90;;;;;;;;;;5111844;28;20436;-71
2023/12/13 00:13:37;;;;;;;3.10;2.90;;;;;;;;;;5113088;28;20435;-72
2023/12/13 00:16:03;;;;;;;5.80;3.87;;;;;;;;;;5111733;28;20424;-72
2023/12/13 00:18:29;;;;;;;13.87;7.73;;;;;;;;;;5113642;28;20506;-71
2023/12/13 00:20:55;;;;;;;10.30;2.93;;;;;;;;;;5113328;28;20419;-71
2023/12/13 00:23:21;;;;;;;1.67;1.63;;;;;;;;;;5111536;28;20979;-72
2023/12/13 00:25:47;;;;;;;0.83;0.63;;;;;;;;;;5112985;28;20849;-71
2023/12/13 00:28:13;;;;;;;1.07;0.70;;;;;;;;;;5112901;28;20455;-71
2023/12/13 00:30:39;;;;;;;4.17;1.17;;;;;;;;;;5113029;28;20486;-71
2023/12/13 00:33:05;;;;;;;0.43;0.43;;;;;;;;;;5114808;28;20420;-71
2023/12/13 00:35:31;;;;;;;0.40;0.40;;;;;;;;;;5116717;28;20418;-71
2023/12/13 00:37:57;;;;;;;0.70;0.70;;;;;;;;;;5116847;28;20427;-71
2023/12/13 00:40:24;;;;;;;0.53;0.53;;;;;;;;;;5116908;28;20510;-71
2023/12/13 00:42:50;;;;;;;1.80;0.77;;;;;;;;;;5116380;28;20470;-71
2023/12/13 00:45:16;;;;;;;1.03;0.70;;;;;;;;;;5116670;28;20418;-72
2023/12/13 00:47:43;;;;;;;3.07;0.60;;;;;;;;;;5116713;28;20411;-71
2023/12/13 00:50:09;;;;;;;0.87;0.60;;;;;;;;;;5116484;28;20418;-72
2023/12/13 00:52:35;;;;;;;0.60;0.60;;;;;;;;;;5116287;28;20914;-71
2023/12/13 00:55:04;;;;;;;0.53;0.53;;;;;;;;;;5116257;28;20921;-71
2023/12/13 00:57:30;;;;;;;0.80;0.73;;;;;;;;;;5116546;28;20458;-71
2023/12/13 00:59:56;;;;;;;0.50;0.40;;;;;;;;;;5116173;28;20470;-71
2023/12/13 01:02:22;;;;;;;4.20;0.57;;;;;;;;;;5115796;28;20918;-70
2023/12/13 01:04:48;;;;;;;0.40;0.40;;;;;;;;;;5116381;28;20499;-71
2023/12/13 01:07:14;;;;;;;0.60;0.60;;;;;;;;;;5116270;28;20404;-71
2023/12/13 01:09:40;;;;;;;2.67;0.40;;;;;;;;;;5115951;28;20921;-71
2023/12/13 01:12:06;;;;;;;0.40;0.40;;;;;;;;;;5116198;28;20415;-71
2023/12/13 01:14:35;;;;;;;0.43;0.30;;;;;;;;;;5116782;28;20508;-72
2023/12/13 01:17:01;;;;;;;1.87;0.93;;;;;;;;;;5116082;28;20418;-71
2023/12/13 01:19:27;;;;;;;0.60;0.60;;;;;;;;;;5115823;28;20511;-70
2023/12/13 01:21:53;;;;;;;3.50;0.93;;;;;;;;;;5116105;28;20450;-71
2023/12/13 01:24:19;;;;;;;2.30;0.60;;;;;;;;;;5116214;28;20478;-71
2023/12/13 01:26:45;;;;;;;2.10;0.50;;;;;;;;;;5115676;28;20777;-71
2023/12/13 01:29:11;;;;;;;0.90;0.90;;;;;;;;;;5115887;28;20412;-71
2023/12/13 01:31:37;;;;;;;5.90;1.00;;;;;;;;;;5115605;28;20515;-71
2023/12/13 01:34:03;;;;;;;2.00;0.80;;;;;;;;;;5115473;28;20434;-71
2023/12/13 01:36:29;;;;;;;1.33;0.83;;;;;;;;;;5116064;28;20451;-71
2023/12/13 01:38:55;;;;;;;1.23;0.53;;;;;;;;;;5115462;28;20914;-71
2023/12/13 01:41:21;;;;;;;3.00;0.73;;;;;;;;;;5115356;28;20424;-71
2023/12/13 01:43:47;;;;;;;3.73;0.77;;;;;;;;;;5114590;28;20597;-71
2023/12/13 01:46:15;;;;;;;0.80;0.67;;;;;;;;;;5115203;28;20412;-71
2023/12/13 01:48:41;;;;;;;0.67;0.67;;;;;;;;;;5115252;28;20416;-71
2023/12/13 01:51:07;;;;;;;2.10;0.70;;;;;;;;;;5115204;28;20972;-71
2023/12/13 01:53:34;;;;;;;3.03;0.93;;;;;;;;;;5115302;28;20778;-71
2023/12/13 01:56:00;;;;;;;0.50;0.50;;;;;;;;;;5115440;28;20523;-71
2023/12/13 01:58:27;;;;;;;1.67;1.20;;;;;;;;;;5115394;28;20462;-71
2023/12/13 02:00:54;;;;;;;1.73;0.73;;;;;;;;;;5114878;28;20507;-71
2023/12/13 02:03:24;;;;;;;0.77;0.77;;;;;;;;;;5114730;28;20573;-71
2023/12/13 02:05:53;;;;;;;1.20;1.13;;;;;;;;;;5113565;28;20514;-72
2023/12/13 02:08:19;;;;;;;2.10;1.33;;;;;;;;;;5115115;28;20502;-71
2023/12/13 02:10:45;;;;;;;0.70;0.70;;;;;;;;;;5115080;28;20447;-71
2023/12/13 02:13:14;;;;;;;1.07;0.60;;;;;;;;;;5114701;28;20416;-71
2023/12/13 02:15:41;;;;;;;1.03;0.57;;;;;;;;;;5114946;28;20415;-71
2023/12/13 02:18:09;;;;;;;1.27;0.67;;;;;;;;;;5114778;28;20487;-72
2023/12/13 02:20:35;;;;;;;0.83;0.83;;;;;;;;;;5114655;27;20423;-71
2023/12/13 02:23:01;;;;;;;1.53;0.57;;;;;;;;;;5114555;28;20825;-71
2023/12/13 02:25:34;;;;;;;4.40;1.00;;;;;;;;;;5114294;28;20454;-72
2023/12/13 02:28:01;;;;;;;1.47;0.97;;;;;;;;;;5114294;28;20452;-72
2023/12/13 02:30:28;;;;;;;1.07;1.00;;;;;;;;;;5114460;28;20424;-71
2023/12/13 02:32:54;;;;;;;1.20;0.67;;;;;;;;;;5114666;28;20407;-72
2023/12/13 02:35:20;;;;;;;1.50;0.90;;;;;;;;;;5114296;28;20926;-71
2023/12/13 02:37:48;;;;;;;2.00;0.80;;;;;;;;;;5114587;28;20843;-71
2023/12/13 02:40:15;;;;;;;1.37;1.30;;;;;;;;;;5114249;27;20852;-71
2023/12/13 02:42:41;;;;;;;2.20;0.63;;;;;;;;;;5114364;28;20471;-72
2023/12/13 02:45:09;;;;;;;0.50;0.50;;;;;;;;;;5114499;28;20502;-71
2023/12/13 02:47:38;;;;;;;1.90;1.00;;;;;;;;;;5114345;28;20420;-71
2023/12/13 02:50:06;;;;;;;0.40;0.40;;;;;;;;;;5114095;28;20492;-72
2023/12/13 02:52:32;;;;;;;2.53;0.50;;;;;;;;;;5114317;28;20416;-71
2023/12/13 02:54:58;;;;;;;0.60;0.50;;;;;;;;;;5114214;28;20521;-71
2023/12/13 02:57:23;;;;;;;0.83;0.83;;;;;;;;;;5113432;28;20443;-71
2023/12/13 02:59:49;;;;;;;1.10;1.00;;;;;;;;;;5114165;28;20419;-71
2023/12/13 03:02:15;;;;;;;0.87;0.83;;;;;;;;;;5114583;28;20420;-71
2023/12/13 03:04:42;;;;;;;0.93;0.80;;;;;;;;;;5114125;28;20418;-72
2023/12/13 03:07:07;;;;;;;4.00;0.87;;;;;;;;;;5114147;28;20412;-71
2023/12/13 03:09:34;;;;;;;1.53;0.77;;;;;;;;;;5113789;28;20778;-71
2023/12/13 03:12:00;;;;;;;0.90;0.90;;;;;;;;;;5114013;28;20403;-71
2023/12/13 03:14:26;;;;;;;0.60;0.60;;;;;;;;;;5113951;28;20451;-71
2023/12/13 03:16:52;;;;;;;0.40;0.40;;;;;;;;;;5114257;28;20473;-71
2023/12/13 03:19:18;;;;;;;1.70;0.60;;;;;;;;;;5113696;28;20411;-71
2023/12/13 03:21:44;;;;;;;1.57;0.63;;;;;;;;;;5113884;28;20506;-71
2023/12/13 03:24:10;;;;;;;1.20;0.73;;;;;;;;;;5113540;28;20574;-71
2023/12/13 03:26:36;;;;;;;0.80;0.47;;;;;;;;;;5113850;28;20418;-71
2023/12/13 03:29:02;;;;;;;3.20;3.00;;;;;;;;;;5113558;28;20480;-71
2023/12/13 03:31:28;;;;;;;1.50;0.67;;;;;;;;;;5114053;28;20898;-71
2023/12/13 03:33:55;;;;;;;1.20;0.80;;;;;;;;;;5113507;28;20412;-71
2023/12/13 03:36:21;;;;;;;1.80;0.60;;;;;;;;;;5113759;28;20412;-71
2023/12/13 03:38:47;;;;;;;0.60;0.60;;;;;;;;;;5113389;28;20423;-71
2023/12/13 03:41:13;;;;;;;2.10;0.50;;;;;;;;;;5113656;28;20412;-71
2023/12/13 03:43:42;;;;;;;1.60;0.90;;;;;;;;;;5113274;28;20511;-71
2023/12/13 03:46:08;;;;;;;0.83;0.50;;;;;;;;;;5113348;28;20408;-71
2023/12/13 03:48:34;;;;;;;2.53;0.70;;;;;;;;;;5113321;28;20906;-71
2023/12/13 03:51:01;;;;;;;0.40;0.40;;;;;;;;;;5113592;28;20412;-71
2023/12/13 03:53:27;;;;;;;1.13;0.83;;;;;;;;;;5113347;28;20419;-71
2023/12/13 03:55:53;;;;;;;0.83;0.60;;;;;;;;;;5113556;28;20415;-71
2023/12/13 04:01:22;;;;;;;4.10;0.90;;;;;;;;;;5113177;28;20889;-70
2023/12/13 04:03:48;;;;;;;1.40;0.63;;;;;;;;;;5113024;28;20490;-71
2023/12/13 04:06:14;;;;;;;1.90;0.63;;;;;;;;;;5113495;28;20875;-71
2023/12/13 04:08:40;;;;;;;4.33;0.77;;;;;;;;;;5116530;28;20469;-70
2023/12/13 04:11:06;;;;;;;4.47;0.90;;;;;;;;;;5115783;28;20812;-71
2023/12/13 04:13:32;;;;;;;0.63;0.60;;;;;;;;;;5115806;28;20786;-71
2023/12/13 04:15:58;;;;;;;1.37;0.67;;;;;;;;;;5117041;28;20491;-71
2023/12/13 04:18:24;;;;;;;3.73;0.83;;;;;;;;;;5117337;28;20443;-71
2023/12/13 04:20:50;;;;;;;1.33;0.70;;;;;;;;;;5115673;28;20411;-71
2023/12/13 04:23:16;;;;;;;3.70;0.57;;;;;;;;;;5117150;28;20501;-71
2023/12/13 04:25:42;;;;;;;0.50;0.50;;;;;;;;;;5117192;28;20460;-71
2023/12/13 04:28:08;;;;;;;2.13;0.90;;;;;;;;;;5117169;28;20549;-71
2023/12/13 04:30:34;;;;;;;0.93;0.70;;;;;;;;;;5117031;28;20415;-71
2023/12/13 04:33:01;;;;;;;4.53;0.50;;;;;;;;;;5117218;28;20419;-70
2023/12/13 04:35:28;;;;;;;3.37;1.00;;;;;;;;;;5116746;28;20447;-71
2023/12/13 04:37:54;;;;;;;2.73;0.70;;;;;;;;;;5117262;28;20956;-71
2023/12/13 04:43:23;;;;;;;0.80;0.80;;;;;;;;;;5116464;28;20466;-70
2023/12/13 04:45:49;;;;;;;2.00;1.77;;;;;;;;;;5116886;28;20407;-71
2023/12/13 04:48:15;;;;;;;0.60;0.60;;;;;;;;;;5116725;28;20561;-71
2023/12/13 04:50:41;;;;;;;6.60;0.70;;;;;;;;;;5116666;28;20411;-71
2023/12/13 04:53:07;;;;;;;0.73;0.73;;;;;;;;;;5116560;28;20426;-71
2023/12/13 04:55:33;;;;;;;4.43;0.73;;;;;;;;;;5117134;28;20411;-71
2023/12/13 04:57:59;;;;;;;0.70;0.50;;;;;;;;;;5116614;28;20515;-71
2023/12/13 05:00:25;;;;;;;4.67;0.67;;;;;;;;;;5116122;28;20423;-71
2023/12/13 05:02:51;;;;;;;0.97;0.50;;;;;;;;;;5115846;28;20490;-71
2023/12/13 05:05:17;;;;;;;0.80;0.80;;;;;;;;;;5116447;28;20432;-71
2023/12/13 05:07:43;;;;;;;2.17;1.10;;;;;;;;;;5116233;28;20420;-71
2023/12/13 05:10:09;;;;;;;1.40;0.90;;;;;;;;;;5116376;28;20411;-71
2023/12/13 05:12:35;;;;;;;1.20;0.90;;;;;;;;;;5115959;28;20415;-71
2023/12/13 05:15:01;;;;;;;4.43;1.37;;;;;;;;;;5115891;28;20461;-70
2023/12/13 05:17:27;;;;;;;1.03;0.97;;;;;;;;;;5116709;28;20426;-71
2023/12/13 05:19:53;;;;;;;0.80;0.80;;;;;;;;;;5113584;28;20416;-71
2023/12/13 05:22:19;;;;;;;3.03;0.97;;;;;;;;;;5115631;28;20453;-70
2023/12/13 05:24:45;;;;;;;2.73;1.73;;;;;;;;;;5116320;28;20449;-71
2023/12/13 05:27:11;;;;;;;2.00;1.87;;;;;;;;;;5116050;28;20420;-71
2023/12/13 05:29:37;;;;;;;3.17;1.27;;;;;;;;;;5115714;28;20415;-71
2023/12/13 05:32:03;;;;;;;1.57;1.13;;;;;;;;;;5115782;28;20991;-71
2023/12/13 05:34:29;;;;;;;3.50;1.23;;;;;;;;;;5115724;28;20802;-71
2023/12/13 05:36:54;;;;;;;1.37;1.27;;;;;;;;;;5115906;28;20427;-71
2023/12/13 05:39:20;;;;;;;2.10;1.00;;;;;;;;;;5115480;28;20899;-71
2023/12/13 05:41:46;;;;;;;1.27;1.23;;;;;;;;;;5115959;28;20892;-71
2023/12/13 05:44:12;;;;;;;1.23;1.00;;;;;;;;;;5131385;27;20942;-71
2023/12/13 05:46:38;;;;;;;0.70;0.70;;;;;;;;;;5115620;28;20443;-71
2023/12/13 05:49:05;;;;;;;5.43;1.40;;;;;;;;;;5115554;28;20477;-71
2023/12/13 05:51:31;;;;;;;1.20;1.10;;;;;;;;;;5115093;28;20447;-71
2023/12/13 05:53:57;;;;;;;1.03;0.73;;;;;;;;;;5115329;28;20442;-71
2023/12/13 05:56:23;;;;;;;1.37;0.90;;;;;;;;;;5115126;28;20411;-70
2023/12/13 05:58:49;;;;;;;1.40;0.80;;;;;;;;;;5115270;28;20416;-71
2023/12/13 06:01:15;;;;;;;1.90;0.67;;;;;;;;;;5115408;28;20499;-72
2023/12/13 06:03:41;;;;;;;2.17;0.80;;;;;;;;;;5114839;28;20495;-70
2023/12/13 06:06:07;;;;;;;0.50;0.50;;;;;;;;;;5115265;28;20998;-70
2023/12/13 06:08:33;;;;;;;1.03;0.80;;;;;;;;;;5115152;28;20419;-71
2023/12/13 06:10:59;;;;;;;0.47;0.47;;;;;;;;;;5115102;28;20503;-70
2023/12/13 06:13:25;;;;;;;0.77;0.67;;;;;;;;;;5115206;28;20476;-70
2023/12/13 06:15:51;;;;;;;1.53;0.70;;;;;;;;;;5114772;28;20511;-71
2023/12/13 06:18:17;;;;;;;1.70;0.40;;;;;;;;;;5115064;28;20503;-71
2023/12/13 06:20:43;;;;;;;2.40;1.70;;;;;;;;;;5114628;28;20507;-72
2023/12/13 06:23:09;;;;;;;1.43;0.60;;;;;;;;;;5114492;28;20467;-71
2023/12/13 06:25:35;;;;;;;1.63;1.53;;;;;;;;;;5114873;28;20420;-71
2023/12/13 06:28:01;;;;;;;3.20;1.33;;;;;;;;;;5114973;28;20769;-71
2023/12/13 06:30:27;;;;;;;1.77;1.53;;;;;;;;;;5112869;28;20786;-71
2023/12/13 06:32:53;;;;;;;0.97;0.97;;;;;;;;;;5114423;28;20431;-72
2023/12/13 06:35:19;;;;;;;1.90;0.70;;;;;;;;;;5114317;28;20568;-71
2023/12/13 06:37:45;;;;;;;0.70;0.70;;;;;;;;;;5114283;28;20461;-70
2023/12/13 06:40:14;;;;;;;1.47;0.97;;;;;;;;;;5114500;28;20424;-70
2023/12/13 06:42:40;;;;;;;0.50;0.50;;;;;;;;;;5114088;28;20538;-70
2023/12/13 06:45:06;;;;;;;1.43;0.90;;;;;;;;;;5114410;28;20447;-71
2023/12/13 06:47:32;;;;;;;1.60;1.37;;;;;;;;;;5114476;28;20473;-70
2023/12/13 06:49:58;;;;;;;5.93;0.60;;;;;;;;;;5114184;28;20894;-63
2023/12/13 06:52:25;;;;;;;0.30;0.30;;;;;;;;;;5113980;28;20412;-70
2023/12/13 06:54:51;;;;;;;1.60;0.70;;;;;;;;;;5114251;28;20852;-70
2023/12/13 06:57:17;;;;;;;1.03;0.57;;;;;;;;;;5114322;28;20490;-71
2023/12/13 06:59:43;;;;;;;0.60;0.60;;;;;;;;;;5114253;28;20447;-70
2023/12/13 07:02:09;;;;;;;4.00;0.70;;;;;;;;;;5114337;28;20411;-70
2023/12/13 07:04:38;;;;;;;0.60;0.60;;;;;;;;;;5114058;28;20455;-71
2023/12/13 07:07:04;;;;;;;0.60;0.60;;;;;;;;;;5114191;28;20469;-69
2023/12/13 07:09:30;;;;;;;0.80;0.50;;;;;;;;;;5113816;28;20491;-70
2023/12/13 07:11:56;;;;;;;3.33;0.70;;;;;;;;;;5114003;28;20431;-70
2023/12/13 07:14:22;;;;;;;2.20;0.70;;;;;;;;;;5113673;28;20411;-70
2023/12/13 07:16:48;;;;;;;2.40;0.90;;;;;;;;;;5113662;28;20959;-70
2023/12/13 07:22:18;;;;;;;5.70;0.80;;;;;;;;;;5113884;28;20419;-70
2023/12/13 07:24:45;;;;;;;4.37;1.10;;;;;;;;;;5113905;28;20456;-70
2023/12/13 07:27:11;;;;;;;1.90;0.83;;;;;;;;;;5113483;28;20837;-69
2023/12/13 07:29:37;;;;;;;0.60;0.40;;;;;;;;;;5113510;28;20987;-70
2023/12/13 07:32:04;;;;;;;0.80;0.67;;;;;;;;;;5113763;28;20447;-70
2023/12/13 07:34:30;;;;;;;7.83;0.80;;;;;;;;;;5113737;28;20455;-70
2023/12/13 07:36:56;;;;;;;4.20;0.70;;;;;;;;;;5113690;28;20423;-69
2023/12/13 07:39:24;;;;;;;1.60;0.50;;;;;;;;;;5113454;28;20419;-71
2023/12/13 07:41:50;;;;;;;1.03;0.60;;;;;;;;;;5113468;28;20526;-70
2023/12/13 07:44:16;;;;;;;0.73;0.73;;;;;;;;;;5117492;28;20471;-69
2023/12/13 07:46:42;;;;;;;3.40;0.93;;;;;;;;;;5117092;28;20450;-70
2023/12/13 07:49:08;;;;;;;0.93;0.93;;;;;;;;;;5117518;28;20872;-70
2023/12/13 07:51:34;;;;;;;0.57;0.57;;;;;;;;;;5118015;28;20416;-70
2023/12/13 07:54:01;;;;;;;0.70;0.70;;;;;;;;;;5116199;28;20430;-70
2023/12/13 07:56:28;;;;;;;0.90;0.67;;;;;;;;;;5117620;28;20441;-70
2023/12/13 07:58:54;;;;;;;2.33;0.93;;;;;;;;;;5118052;28;20902;-70
2023/12/13 08:01:20;;;;;;;1.90;1.50;;;;;;;;;;5117376;28;20929;-70
2023/12/13 08:03:46;;;;;;;1.47;1.40;;;;;;;;;;5117481;28;20486;-70
2023/12/13 08:06:13;;;;;;;1.07;1.07;;;;;;;;;;5117608;28;20416;-70
2023/12/13 08:08:39;;;;;;;1.63;1.63;;;;;;;;;;5117564;28;20484;-71
2023/12/13 08:11:06;;;;;;;0.70;0.70;;;;;;;;;;5117573;28;20423;-70
2023/12/13 08:13:33;;;;;;;2.80;1.23;;;;;;;;;;5117155;27;20424;-70
2023/12/13 08:15:59;;;;;;;0.53;0.50;;;;;;;;;;5117211;28;20880;-70
2023/12/13 08:18:25;;;;;;;9.03;3.80;;;;;;;;;;5117082;28;20502;-70
2023/12/13 08:20:51;;;;;;;0.90;0.90;;;;;;;;;;5117034;28;20416;-70
2023/12/13 08:23:17;;;;;;;1.63;1.53;;;;;;;;;;5116901;28;20467;-70
2023/12/13 08:25:43;;;;;;;1.67;1.67;;;;;;;;;;5117230;28;20962;-70
2023/12/13 08:28:09;;;;;;;1.70;1.57;;;;;;;;;;5116867;28;20416;-70
2023/12/13 08:30:35;;;;;;;1.10;1.00;;;;;;;;;;5116735;28;20412;-70
2023/12/13 08:33:02;;;;;;;2.77;0.87;;;;;;;;;;5117011;28;20434;-70
2023/12/13 08:35:28;;;;;;;2.13;1.13;;;;;;;;;;5116658;28;20427;-70
2023/12/13 08:37:54;;;;;;;0.93;0.93;;;;;;;;;;5116750;28;20448;-70
2023/12/13 08:43:24;;;;;;;0.93;0.80;;;;;;;;;;5116665;28;20501;-70
2023/12/13 08:45:50;;;;;;;1.03;0.83;;;;;;;;;;5117261;28;20416;-70
2023/12/13 08:48:16;;;;;;;0.73;0.73;;;;;;;;;;5116587;28;20412;-70
2023/12/13 08:50:42;;;;;;;0.90;0.90;;;;;;;;;;5116590;28;20499;-70
2023/12/13 08:53:08;;;;;;;4.20;0.90;;;;;;;;;;5116873;28;20907;-70
2023/12/13 08:55:34;;;;;;;1.43;0.80;;;;;;;;;;5116553;28;20458;-70
2023/12/13 08:58:00;;;;;;;2.97;1.10;;;;;;;;;;5116603;28;20420;-70
2023/12/13 09:00:26;;;;;;;0.97;0.97;;;;;;;;;;5116548;28;20418;-70
2023/12/13 09:02:52;;;;;;;0.90;0.90;;;;;;;;;;5115801;28;20573;-70
2023/12/13 09:05:18;;;;;;;2.30;0.60;;;;;;;;;;5116530;28;20799;-70
2023/12/13 09:07:44;;;;;;;0.83;0.83;;;;;;;;;;5116380;28;20419;-69
2023/12/13 09:10:11;;;;;;;0.70;0.70;;;;;;;;;;5116309;28;20411;-70
2023/12/13 09:12:38;;;;;;;1.93;0.90;;;;;;;;;;5115979;28;20484;-70
2023/12/13 09:15:06;;;;;;;0.97;0.70;;;;;;;;;;5116352;28;20824;-70
2023/12/13 09:17:32;;;;;;;0.80;0.80;;;;;;;;;;5116164;28;20423;-70
2023/12/13 09:19:58;;;;;;;0.60;0.60;;;;;;;;;;5115911;28;20826;-70
2023/12/13 09:22:24;;;;;;;1.03;0.57;;;;;;;;;;5115771;28;20408;-70
2023/12/13 09:24:50;;;;;;;0.50;0.50;;;;;;;;;;5116152;28;20443;-70
2023/12/13 09:27:16;;;;;;;1.13;0.40;;;;;;;;;;5115734;28;20436;-71
2023/12/13 09:29:43;;;;;;;0.63;0.60;;;;;;;;;;5115887;28;20749;-70
2023/12/13 09:32:08;;;;;;;1.63;0.63;;;;;;;;;;5115964;28;20415;-70
2023/12/13 09:34:34;;;;;;;1.17;0.50;;;;;;;;;;5115838;28;20412;-70
2023/12/13 09:37:00;;;;;;;2.43;0.50;;;;;;;;;;5115467;28;20548;-70
2023/12/13 09:39:26;;;;;;;0.40;0.40;;;;;;;;;;5115492;28;20515;-70
2023/12/13 09:42:03;;;;;;;1.30;0.63;;;;;;;;;;5115689;28;20412;-70
2023/12/13 09:44:30;;;;;;;1.03;0.50;;;;;;;;;;5115615;28;20506;-70
2023/12/13 09:46:58;;;;;;;0.97;0.60;;;;;;;;;;5114167;28;20431;-70
2023/12/13 09:49:24;;;;;;;1.90;0.70;;;;;;;;;;5115281;28;20931;-71
2023/12/13 09:51:52;;;;;;;0.47;0.47;;;;;;;;;;5115448;28;20498;-70
2023/12/13 09:54:19;;;;;;;0.47;0.40;;;;;;;;;;5115258;28;20420;-70
2023/12/13 09:56:45;;;;;;;2.00;0.60;;;;;;;;;;5115258;28;20404;-70
2023/12/13 09:59:11;;;;;;;1.60;0.70;;;;;;;;;;5115054;28;20426;-70
2023/12/13 10:01:37;;;;;;;0.50;0.50;;;;;;;;;;5115090;28;20412;-70
2023/12/13 10:04:03;;;;;;;0.50;0.50;;;;;;;;;;5114895;28;20849;-70
2023/12/13 10:06:29;;;;;;;0.90;0.90;;;;;;;;;;5115208;28;20765;-70
2023/12/13 10:09:01;;;;;;;1.70;1.60;;;;;;;;;;5115236;28;20420;-70
2023/12/13 10:11:27;;;;;;;0.43;0.40;;;;;;;;;;5115008;28;20432;-70
2023/12/13 10:13:53;;;;;;;0.60;0.60;;;;;;;;;;5114818;28;20419;-70
2023/12/13 10:16:19;;;;;;;0.77;0.43;;;;;;;;;;5113577;28;20423;-71
2023/12/13 10:18:47;;;;;;;0.83;0.83;;;;;;;;;;5114955;28;20424;-70
2023/12/13 10:21:14;;;;;;;1.70;0.40;;;;;;;;;;5114960;28;20461;-70
2023/12/13 10:23:41;;;;;;;0.60;0.40;;;;;;;;;;5113338;28;20665;-70
2023/12/13 10:26:07;;;;;;;0.63;0.43;;;;;;;;;;5114915;28;20419;-70
2023/12/13 10:28:36;;;;;;;0.50;0.50;;;;;;;;;;5114521;28;20420;-70
2023/12/13 10:31:03;;;;;;;4.17;0.40;;;;;;;;;;5114520;28;20416;-70
2023/12/13 10:33:29;;;;;;;1.33;0.70;;;;;;;;;;5114532;28;20741;-70
2023/12/13 10:35:57;;;;;;;0.40;0.40;;;;;;;;;;5114392;28;20403;-70
2023/12/13 10:38:25;;;;;;;0.50;0.50;;;;;;;;;;5115374;28;20439;-70
2023/12/13 10:40:52;;;;;;;1.90;0.70;;;;;;;;;;5114851;28;20442;-70
2023/12/13 10:43:19;;;;;;;0.90;0.60;;;;;;;;;;5113944;28;20463;-70
2023/12/13 10:45:50;;;;;;;0.70;0.60;;;;;;;;;;5114380;28;20424;-70
2023/12/13 10:48:17;;;;;;;0.60;0.60;;;;;;;;;;5114463;28;20406;-70
2023/12/13 10:50:48;;;;;;;0.40;0.40;;;;;;;;;;5114317;28;20473;-70
2023/12/13 10:53:16;;;;;;;1.47;0.60;;;;;;;;;;5113829;28;20435;-70
2023/12/13 10:55:42;;;;;;;1.30;0.57;;;;;;;;;;5114313;28;20414;-70
2023/12/13 10:58:09;;;;;;;0.50;0.50;;;;;;;;;;5114140;28;20422;-70
2023/12/13 11:00:35;;;;;;;0.50;0.50;;;;;;;;;;5113705;28;20414;-70
2023/12/13 11:03:12;;;;;;;0.60;0.60;;;;;;;;;;5113634;28;21012;-70
2023/12/13 11:05:38;;;;;;;0.40;0.30;;;;;;;;;;5113925;28;20946;-70
2023/12/13 11:08:14;;;;;;;0.50;0.50;;;;;;;;;;5114049;28;20416;-70
2023/12/13 11:10:40;;;;;;;1.10;0.40;;;;;;;;;;5114349;28;20676;-70
2023/12/13 11:13:06;;;;;;;1.27;1.27;;;;;;;;;;5113863;28;20419;-70
2023/12/13 11:15:32;;;;;;;4.20;3.80;;;;;;;;;;5113426;28;20407;-70
2023/12/13 11:18:00;;;;;;;1.17;1.17;;;;;;;;;;5112944;28;20773;-70
2023/12/13 11:20:26;;;;;;;9.37;8.47;;;;;;;;;;5113788;28;20507;-70
2023/12/13 11:22:56;;;;;;;6.07;5.83;;;;;;;;;;5113951;28;20524;-70
2023/12/13 11:25:34;;;;;;;5.13;4.73;;;;;;;;;;5113575;28;20907;-70
2023/12/13 11:28:00;;;;;;;17.03;6.60;;;;;;;;;;5113889;28;20427;-70
2023/12/13 11:30:26;;;;;;;24.40;14.00;;;;;;;;;;5113686;28;20416;-70
2023/12/13 11:32:52;;;;;;;71.97;31.03;;;;;;;;;;5113660;28;20410;-70
2023/12/13 11:35:19;;;;;;;53.30;25.23;;;;;;;;;;5113762;28;20444;-70
2023/12/13 11:37:50;;;;;;;80.30;36.10;;;;;;;;;;5113488;28;20428;-70
2023/12/13 11:40:16;;;;;;;61.90;33.43;;;;;;;;;;5113760;28;20455;-70
2023/12/13 11:42:42;;;;;;;13.83;8.67;;;;;;;;;;5113532;28;20470;-70
2023/12/13 11:45:08;;;;;;;7.57;4.87;;;;;;;;;;5113655;28;20420;-70
2023/12/13 11:47:34;;;;;;;19.73;12.83;;;;;;;;;;5113407;28;20408;-70
2023/12/13 11:50:00;;;;;;;5.83;5.27;;;;;;;;;;5113553;28;20420;-70
2023/12/13 11:52:26;;;;;;;55.60;29.83;;;;;;;;;;5113360;28;20439;-70
2023/12/13 11:54:52;;;;;;;7.80;4.67;;;;;;;;;;5113633;28;20422;-70
2023/12/13 11:57:19;;;;;;;23.93;14.97;;;;;;;;;;5113303;28;20411;-71
2023/12/13 11:59:49;;;;;;;61.63;31.37;;;;;;;;;;5113250;28;20510;-70
2023/12/13 12:02:22;;;;;;;10.53;7.77;;;;;;;;;;5113683;28;20389;-70
2023/12/13 12:04:50;;;;;;;32.87;18.27;;;;;;;;;;5113233;28;20416;-70
2023/12/13 12:07:17;;;;;;;10.57;6.93;;;;;;;;;;5113310;28;20436;-70
2023/12/13 12:09:50;;;;;;;6.87;6.17;;;;;;;;;;5113211;28;20844;-70
2023/12/13 12:12:17;;;;;;;8.77;6.63;;;;;;;;;;5113488;28;20498;-70
2023/12/13 12:14:45;;;;;;;32.97;18.93;;;;;;;;;;5113506;28;20516;-70
2023/12/13 12:17:11;;;;;;;18.13;11.00;;;;;;;;;;5113393;28;20412;-70
2023/12/13 12:19:38;;;;;;;4.50;4.17;;;;;;;;;;5111815;28;20412;-70
2023/12/13 12:22:04;;;;;;;16.00;10.00;;;;;;;;;;5113301;28;20423;-71
2023/12/13 12:24:30;;;;;;;17.47;8.87;;;;;;;;;;5113044;28;20475;-70
2023/12/13 12:27:12;;;;;;;47.22;24.92;;;;;;;;;;5112319;28;20448;-70
2023/12/13 12:29:41;;;;;;;19.50;12.10;;;;;;;;;;5115948;28;20174;-71
2023/12/13 12:32:11;;;;;;;20.43;12.10;;;;;;;;;;5117005;28;20491;-70
2023/12/13 12:34:39;;;;;;;3.07;2.70;;;;;;;;;;5117588;28;20392;-70
2023/12/13 12:37:06;;;;;;;1.70;1.70;;;;;;;;;;5116982;28;20416;-70
2023/12/13 12:39:32;;;;;;;2.60;1.53;;;;;;;;;;5116650;28;20415;-70
2023/12/13 12:41:58;;;;;;;11.50;7.03;;;;;;;;;;5116536;28;20414;-70
2023/12/13 12:44:24;;;;;;;4.17;2.70;;;;;;;;;;5116228;28;20462;-70
2023/12/13 12:46:50;;;;;;;2.70;2.50;;;;;;;;;;5116510;28;20408;-70
2023/12/13 12:49:16;;;;;;;5.53;2.83;;;;;;;;;;5116737;28;20416;-70
2023/12/13 12:51:42;;;;;;;0.90;0.90;;;;;;;;;;5116959;28;20404;-70
2023/12/13 12:54:08;;;;;;;18.03;10.20;;;;;;;;;;5116355;28;20492;-70
2023/12/13 12:56:36;;;;;;;5.77;5.20;;;;;;;;;;5116623;28;20418;-70
2023/12/13 12:59:02;;;;;;;11.17;7.17;;;;;;;;;;5116266;28;20779;-70
2023/12/13 13:01:29;;;;;;;2.63;2.43;;;;;;;;;;5116274;28;20415;-70
2023/12/13 13:03:56;;;;;;;4.77;4.17;;;;;;;;;;5115894;28;20494;-70
2023/12/13 13:06:22;;;;;;;4.83;4.43;;;;;;;;;;5116757;28;20752;-70
2023/12/13 13:08:49;;;;;;;2.73;2.43;;;;;;;;;;5116281;28;20911;-70
2023/12/13 13:11:15;;;;;;;23.20;14.73;;;;;;;;;;5116375;28;20427;-70
2023/12/13 13:13:41;;;;;;;2.80;2.57;;;;;;;;;;5116234;28;20438;-70
2023/12/13 13:16:07;;;;;;;4.00;3.57;;;;;;;;;;5114678;28;20862;-70
2023/12/13 13:18:33;;;;;;;2.63;0.87;;;;;;;;;;5116545;28;20444;-71
2023/12/13 13:21:00;;;;;;;16.70;5.70;;;;;;;;;;5115932;28;20447;-71
2023/12/13 13:23:26;;;;;;;17.50;7.57;;;;;;;;;;5116499;28;20558;-70
2023/12/13 13:25:52;;;;;;;5.77;4.20;;;;;;;;;;5115839;28;20506;-70
2023/12/13 13:28:18;;;;;;;1.00;1.00;;;;;;;;;;5115812;28;20422;-71
2023/12/13 13:30:44;;;;;;;1.20;0.83;;;;;;;;;;5115957;28;20565;-70
2023/12/13 13:33:10;;;;;;;1.13;0.90;;;;;;;;;;5115631;28;20451;-70
2023/12/13 13:35:37;;;;;;;3.00;2.90;;;;;;;;;;5115528;28;20422;-70
2023/12/13 13:38:03;;;;;;;4.07;3.73;;;;;;;;;;5115576;28;20426;-70
2023/12/13 13:40:29;;;;;;;2.37;2.27;;;;;;;;;;5114563;28;20451;-70
2023/12/13 13:42:55;;;;;;;3.53;2.00;;;;;;;;;;5115821;28;20482;-71
2023/12/13 13:45:21;;;;;;;1.03;0.60;;;;;;;;;;5115617;28;20791;-70
2023/12/13 13:47:48;;;;;;;1.93;1.13;;;;;;;;;;5115656;28;20408;-71
2023/12/13 13:50:15;;;;;;;0.70;0.30;;;;;;;;;;5115089;28;20454;-71
2023/12/13 13:52:42;;;;;;;4.00;0.73;;;;;;;;;;5115178;28;20907;-71
2023/12/13 13:55:09;;;;;;;0.57;0.40;;;;;;;;;;5115354;28;20498;-71
2023/12/13 13:57:35;;;;;;;1.60;0.80;;;;;;;;;;5115457;28;20418;-70
2023/12/13 14:00:03;;;;;;;0.93;0.50;;;;;;;;;;5115121;28;20510;-70
2023/12/13 14:02:31;;;;;;;0.60;0.60;;;;;;;;;;5114950;28;20408;-70
2023/12/13 14:04:57;;;;;;;0.50;0.50;;;;;;;;;;5115402;28;20416;-70
2023/12/13 14:07:23;;;;;;;2.20;0.70;;;;;;;;;;5114991;28;20465;-70
2023/12/13 14:12:53;;;;;;;0.57;0.57;;;;;;;;;;5115199;28;20887;-70
2023/12/13 14:15:19;;;;;;;0.83;0.70;;;;;;;;;;5115198;27;20415;-70
2023/12/13 14:17:45;;;;;;;0.53;0.53;;;;;;;;;;5114641;28;20404;-70
2023/12/13 14:20:12;;;;;;;0.70;0.70;;;;;;;;;;5114819;28;20415;-70
2023/12/13 14:22:39;;;;;;;0.70;0.70;;;;;;;;;;5114509;28;20420;-70
2023/12/13 14:25:05;;;;;;;2.30;0.60;;;;;;;;;;5114393;28;20891;-70
2023/12/13 14:27:31;;;;;;;1.47;1.27;;;;;;;;;;5115165;28;20427;-70
2023/12/13 14:29:57;;;;;;;0.40;0.40;;;;;;;;;;5114692;28;20534;-70
2023/12/13 14:32:23;;;;;;;1.30;0.83;;;;;;;;;;5114483;28;20903;-70
2023/12/13 14:34:49;;;;;;;1.60;0.70;;;;;;;;;;5114933;28;20415;-70
2023/12/13 14:37:15;;;;;;;0.80;0.80;;;;;;;;;;5115190;28;20423;-71
2023/12/13 14:39:41;;;;;;;0.97;0.83;;;;;;;;;;5114367;28;20415;-70
2023/12/13 14:42:07;;;;;;;0.53;0.53;;;;;;;;;;5114392;28;20766;-70
2023/12/13 14:44:33;;;;;;;0.53;0.53;;;;;;;;;;5114336;28;20974;-70
2023/12/13 14:46:59;;;;;;;0.70;0.70;;;;;;;;;;5114123;28;20788;-70
2023/12/13 14:52:29;;;;;;;5.60;5.20;;;;;;;;;;5113902;28;20411;-70
2023/12/13 14:54:55;;;;;;;2.20;2.10;;;;;;;;;;5114311;28;20416;-70